Time;durP1;ratioP1;P1;durP2;ratioP2;P2;SDS_P1;SDS_P2;PMS_P1;PMS_P2;Temp;Humidity;BMP_temperature;BMP_pressure;BME280_temperature;BME280_humidity;BME280_pressure;Samples;Min_cycle;Max_cycle;Signal;HPM_P1;HPM_P2
2022/09/29 00:00:50;;;;;;;13.95;8.38;;;;;;;4.76;100.00;98454.94;1693605;84;20896;-76
2022/09/29 00:03:17;;;;;;;14.47;7.83;;;;;;;4.76;100.00;98448.14;1693683;84;21004;-76
2022/09/29 00:05:51;;;;;;;13.28;7.50;;;;;;;4.76;100.00;98450.86;1675882;85;21042;-76
2022/09/29 00:08:21;;;;;;;16.60;7.97;;;;;;;4.76;100.00;98452.22;1701760;84;21180;-76
2022/09/29 00:10:48;;;;;;;12.28;7.83;;;;;;;4.76;100.00;98454.39;1704546;84;21018;-76
2022/09/29 00:13:14;;;;;;;18.07;8.85;;;;;;;4.75;100.00;98453.33;1685716;84;20911;-76
2022/09/29 00:15:41;;;;;;;18.95;9.10;;;;;;;4.73;100.00;98469.14;1695053;84;21502;-76
2022/09/29 00:18:08;;;;;;;13.00;7.75;;;;;;;4.71;100.00;98470.00;1709776;84;20944;-76
2022/09/29 00:20:35;;;;;;;13.98;7.62;;;;;;;4.70;100.00;98470.55;1674498;85;21167;-76
2022/09/29 00:23:02;;;;;;;12.03;7.83;;;;;;;4.69;100.00;98479.02;1709522;83;20955;-74
2022/09/29 00:25:29;;;;;;;12.82;7.25;;;;;;;4.68;100.00;98476.84;1675001;85;20911;-73
2022/09/29 00:27:55;;;;;;;12.95;7.33;;;;;;;4.63;100.00;98475.03;1704270;84;20912;-73
2022/09/29 00:30:22;;;;;;;12.18;7.90;;;;;;;4.63;100.00;98478.30;1710061;84;21506;-73
2022/09/29 00:32:48;;;;;;;12.25;7.55;;;;;;;4.63;100.00;98478.30;1704017;84;21250;-73
2022/09/29 00:35:16;;;;;;;17.98;7.42;;;;;;;4.63;100.00;98478.30;1703921;84;20896;-73
2022/09/29 00:37:43;;;;;;;17.85;7.65;;;;;;;4.61;100.00;98485.98;1703990;84;20995;-73
2022/09/29 00:40:10;;;;;;;11.55;7.45;;;;;;;4.61;100.00;98492.23;1674436;85;21495;-73
2022/09/29 00:42:37;;;;;;;17.55;8.63;;;;;;;4.58;100.00;98486.03;1709548;84;20935;-73
2022/09/29 00:45:17;;;;;;;11.53;7.33;;;;;;;4.60;100.00;98495.25;1674401;85;21583;-75
2022/09/29 00:47:50;;;;;;;15.00;8.45;;;;;;;4.57;100.00;98487.70;1704861;84;20947;-75
2022/09/29 00:50:24;;;;;;;19.05;9.35;;;;;;;4.60;100.00;98498.77;1709291;84;21415;-75
2022/09/29 00:52:56;;;;;;;19.80;9.23;;;;;;;4.59;100.00;98503.95;1709424;84;20963;-76
2022/09/29 00:55:30;;;;;;;15.18;9.28;;;;;;;4.59;100.00;98505.88;1674439;85;21019;-76
2022/09/29 00:58:10;;;;;;;19.07;8.78;;;;;;;4.57;100.00;98505.36;1646644;85;21780;-76
2022/09/29 01:00:38;;;;;;;14.60;8.70;;;;;;;4.54;100.00;98517.64;1709501;84;20943;-76
2022/09/29 01:03:08;;;;;;;16.97;8.83;;;;;;;4.54;100.00;98517.64;1674412;85;20919;-76
2022/09/29 01:05:41;;;;;;;18.30;8.73;;;;;;;4.51;100.00;98516.89;1697641;83;20919;-74
2022/09/29 01:08:25;;;;;;;14.55;7.80;;;;;;;4.49;100.00;98519.66;1679519;85;20911;-74
2022/09/29 01:10:52;;;;;;;17.98;8.88;;;;;;;4.48;100.00;98516.68;1694487;84;21735;-74
2022/09/29 01:13:19;;;;;;;13.53;8.50;;;;;;;4.46;100.00;98511.55;1679515;85;21002;-74
2022/09/29 01:15:46;;;;;;;15.58;9.68;;;;;;;4.45;100.00;98514.56;1694387;84;20904;-74
2022/09/29 01:18:13;;;;;;;17.32;9.28;;;;;;;4.43;100.00;98525.73;1679534;85;20948;-76
2022/09/29 01:21:06;;;;;;;16.90;9.03;;;;;;;4.42;100.00;98524.13;1694358;84;20991;-76
2022/09/29 01:24:16;;;;;;;16.42;9.43;;;;;;;4.42;100.00;98524.13;1672054;85;21125;-75
2022/09/29 01:27:19;;;;;;;13.40;8.55;;;;;;;4.42;100.00;98533.63;1694588;84;20952;-75
2022/09/29 01:30:05;;;;;;;14.25;9.23;;;;;;;4.42;100.00;98533.63;1679681;85;27364;-75
2022/09/29 01:33:13;;;;;;;16.90;8.65;;;;;;;4.41;100.00;98535.30;1694523;84;21547;-75
2022/09/29 01:35:58;;;;;;;14.15;8.98;;;;;;;4.40;100.00;98529.60;1679518;85;20931;-75
2022/09/29 01:38:48;;;;;;;15.48;7.85;;;;;;;4.44;100.00;98533.34;1694211;84;21114;-75
2022/09/29 01:41:29;;;;;;;13.32;8.80;;;;;;;4.47;100.00;98539.53;1679454;85;21020;-75
2022/09/29 01:44:04;;;;;;;19.03;9.10;;;;;;;4.47;100.00;98544.41;1679794;85;20931;-77
2022/09/29 01:46:37;;;;;;;12.23;7.80;;;;;;;4.50;100.00;98543.81;1679672;85;20983;-75
2022/09/29 01:49:04;;;;;;;13.48;8.13;;;;;;;4.53;100.00;98543.77;1694674;84;20955;-73
2022/09/29 01:51:45;;;;;;;13.38;7.92;;;;;;;4.57;100.00;98548.86;1695136;84;21560;-73
2022/09/29 01:54:19;;;;;;;12.37;7.58;;;;;;;4.57;100.00;98544.23;1695556;84;21491;-76
2022/09/29 01:57:03;;;;;;;15.43;7.55;;;;;;;4.58;100.00;98553.19;1673217;85;20877;-77
2022/09/29 01:59:38;;;;;;;10.18;6.95;;;;;;;4.66;100.00;98552.45;1657328;85;21030;-75
2022/09/29 02:02:09;;;;;;;11.12;6.83;;;;;;;4.66;100.00;98552.45;1673439;85;20904;-74
2022/09/29 02:04:46;;;;;;;13.83;6.62;;;;;;;4.72;100.00;98556.70;1676691;84;21112;-76
2022/09/29 02:07:25;;;;;;;11.20;5.83;;;;;;;4.73;100.00;98556.14;1700073;84;20861;-75
2022/09/29 02:09:57;;;;;;;8.53;5.72;;;;;;;4.76;100.00;98564.50;1698828;84;20999;-75
2022/09/29 02:12:26;;;;;;;8.70;6.25;;;;;;;4.76;100.00;98564.50;1700104;84;20880;-76
2022/09/29 02:14:52;;;;;;;8.43;5.62;;;;;;;4.74;100.00;98562.64;1700314;84;21023;-76
2022/09/29 02:17:24;;;;;;;8.23;5.60;;;;;;;4.74;100.00;98559.11;1700137;84;21780;-76
2022/09/29 02:19:51;;;;;;;8.00;5.45;;;;;;;4.76;100.00;98558.26;1700231;84;27057;-75
2022/09/29 02:22:18;;;;;;;7.47;5.08;;;;;;;4.73;100.00;98556.14;1700211;84;20872;-76
2022/09/29 02:24:44;;;;;;;7.22;4.50;;;;;;;4.73;100.00;98556.14;1700126;84;21015;-76
2022/09/29 02:27:10;;;;;;;8.38;4.50;;;;;;;4.70;100.00;98549.39;1700103;84;20991;-76
2022/09/29 02:29:38;;;;;;;8.48;4.92;;;;;;;4.65;100.00;98547.58;1700218;84;21151;-76
2022/09/29 02:32:05;;;;;;;8.60;4.20;;;;;;;4.69;100.00;98548.33;1700128;84;20943;-76
2022/09/29 02:34:36;;;;;;;6.28;4.55;;;;;;;4.69;100.00;98548.33;1700070;84;21014;-76
2022/09/29 02:37:26;;;;;;;5.55;4.12;;;;;;;4.69;100.00;98543.70;1700513;84;20995;-75
2022/09/29 02:40:50;;;;;;;5.70;4.20;;;;;;;4.66;100.00;98538.87;1700355;84;20959;-75
2022/09/29 02:43:58;;;;;;;4.58;3.45;;;;;;;4.67;100.00;98543.20;1700544;84;21125;-75
2022/09/29 02:46:52;;;;;;;10.35;4.53;;;;;;;4.67;100.00;98543.20;1699846;84;20935;-74
2022/09/29 02:49:42;;;;;;;6.83;4.40;;;;;;;4.61;100.00;98542.52;1700598;84;20947;-74
2022/09/29 02:52:20;;;;;;;6.37;4.22;;;;;;;4.61;100.00;98542.52;1698916;84;20947;-75
2022/09/29 02:55:10;;;;;;;6.83;4.85;;;;;;;4.61;100.00;98544.43;1681862;84;20928;-75
2022/09/29 02:57:55;;;;;;;7.83;5.60;;;;;;;4.61;100.00;98544.43;1700289;84;21991;-75
2022/09/29 03:00:21;;;;;;;10.15;4.30;;;;;;;4.66;100.00;98545.66;1700353;84;20991;-75
2022/09/29 03:02:48;;;;;;;12.23;4.70;;;;;;;4.74;100.00;98549.59;1700195;84;21054;-75
2022/09/29 03:05:17;;;;;;;14.07;4.90;;;;;;;4.74;100.00;98549.59;1696884;84;20924;-75
2022/09/29 03:07:44;;;;;;;12.47;5.53;;;;;;;4.82;100.00;98553.78;1701288;84;20916;-75
2022/09/29 03:10:12;;;;;;;8.85;5.30;;;;;;;4.86;100.00;98547.99;1679661;85;21065;-75
2022/09/29 03:12:40;;;;;;;8.95;5.50;;;;;;;4.95;100.00;98555.70;1700451;84;20932;-75
2022/09/29 03:15:11;;;;;;;8.58;6.03;;;;;;;5.04;100.00;98550.35;1672197;85;20920;-75
2022/09/29 03:17:38;;;;;;;10.95;6.62;;;;;;;5.18;100.00;98553.87;1701401;84;20963;-75
2022/09/29 03:20:07;;;;;;;6.97;5.28;;;;;;;5.35;100.00;98556.48;1679633;85;20952;-75
2022/09/29 03:22:33;;;;;;;16.37;7.12;;;;;;;5.45;100.00;98558.44;1700739;84;21099;-74
2022/09/29 03:25:04;;;;;;;7.47;5.75;;;;;;;5.51;100.00;98563.21;1672306;85;20916;-75
2022/09/29 03:27:32;;;;;;;8.90;6.17;;;;;;;5.60;100.00;98560.82;1701573;84;20943;-75
2022/09/29 03:30:00;;;;;;;11.40;7.05;;;;;;;5.67;100.00;98563.67;1679707;85;20927;-75
2022/09/29 03:32:27;;;;;;;15.08;7.42;;;;;;;5.72;100.00;98564.92;1700583;84;20912;-74
2022/09/29 03:34:54;;;;;;;10.30;7.00;;;;;;;5.77;100.00;98567.53;1672340;85;21808;-74
2022/09/29 03:37:20;;;;;;;8.58;5.75;;;;;;;5.83;100.00;98571.72;1701090;84;21015;-74
2022/09/29 03:39:47;;;;;;;10.75;6.97;;;;;;;5.87;100.00;98574.07;1679609;85;20883;-75
2022/09/29 03:42:16;;;;;;;8.73;6.40;;;;;;;5.90;100.00;98577.02;1700448;84;20947;-74
2022/09/29 03:44:42;;;;;;;13.50;7.15;;;;;;;5.93;100.00;98575.04;1672354;85;20872;-75
2022/09/29 03:47:09;;;;;;;9.65;6.00;;;;;;;5.95;100.00;98576.09;1701508;83;21785;-75
2022/09/29 03:49:35;;;;;;;10.70;6.42;;;;;;;5.95;100.00;98580.18;1679506;85;20968;-77
2022/09/29 03:52:01;;;;;;;15.70;6.40;;;;;;;5.96;100.00;98581.23;1699159;84;20975;-77
2022/09/29 03:54:28;;;;;;;9.18;6.80;;;;;;;5.98;100.00;98585.01;1671841;85;21095;-77
2022/09/29 03:56:55;;;;;;;11.93;7.17;;;;;;;5.98;100.00;98588.29;1701056;84;21455;-74
2022/09/29 03:59:22;;;;;;;9.18;6.58;;;;;;;6.00;100.00;98595.05;1679600;85;21123;-79
2022/09/29 04:01:48;;;;;;;10.90;6.35;;;;;;;6.01;100.00;98594.48;1700395;84;20955;-79
2022/09/29 04:04:14;;;;;;;10.90;6.85;;;;;;;6.02;100.00;98600.19;1672399;85;20972;-77
2022/09/29 04:06:41;;;;;;;10.72;7.58;;;;;;;6.03;100.00;98602.59;1707162;83;21605;-77
2022/09/29 04:09:08;;;;;;;11.10;6.58;;;;;;;6.08;100.00;98603.03;1713035;83;20864;-79
2022/09/29 04:11:35;;;;;;;9.10;7.10;;;;;;;6.13;100.00;98598.83;1713246;83;21289;-79
2022/09/29 04:14:01;;;;;;;10.82;7.62;;;;;;;6.16;100.00;98608.55;1709758;84;21014;-87
2022/09/29 04:16:28;;;;;;;9.58;6.33;;;;;;;6.21;100.00;98608.44;1706032;83;21011;-85
2022/09/29 04:18:55;;;;;;;8.70;6.80;;;;;;;6.25;100.00;98618.16;1709928;84;20872;-89
2022/09/29 04:21:22;;;;;;;10.28;7.17;;;;;;;6.32;100.00;98621.26;1709534;84;20999;-92
2022/09/29 04:23:49;;;;;;;13.10;7.80;;;;;;;6.35;100.00;98624.72;1709789;84;21143;-87
2022/09/29 04:26:15;;;;;;;11.88;7.95;;;;;;;6.38;100.00;98622.71;1713006;83;20975;-78
2022/09/29 04:28:42;;;;;;;11.53;7.50;;;;;;;6.39;100.00;98621.59;1713136;83;20995;-75
2022/09/29 04:31:08;;;;;;;13.32;7.40;;;;;;;6.41;100.00;98622.09;1713295;83;21461;-85
2022/09/29 04:33:35;;;;;;;9.90;6.78;;;;;;;6.42;100.00;98614.72;1709743;84;20999;-75
2022/09/29 04:36:03;;;;;;;12.78;7.12;;;;;;;6.42;100.00;98609.27;1709504;84;21002;-79
2022/09/29 04:38:30;;;;;;;10.30;7.42;;;;;;;6.41;100.00;98609.83;1709640;84;20950;-76
2022/09/29 04:40:57;;;;;;;9.63;6.90;;;;;;;6.43;100.00;98613.05;1709825;84;20958;-82
2022/09/29 04:43:25;;;;;;;11.20;6.95;;;;;;;6.45;100.00;98608.09;1681496;84;21486;-80
2022/09/29 04:45:51;;;;;;;8.20;6.10;;;;;;;6.50;100.00;98605.79;1709749;84;21043;-84
2022/09/29 04:48:18;;;;;;;10.35;6.17;;;;;;;6.53;100.00;98611.42;1709803;84;21153;-81
2022/09/29 04:50:44;;;;;;;8.58;6.70;;;;;;;6.58;100.00;98612.66;1709365;84;21518;-83
2022/09/29 04:53:13;;;;;;;10.15;6.37;;;;;;;6.64;100.00;98613.34;1681716;84;21026;-83
2022/09/29 04:55:40;;;;;;;7.25;5.55;;;;;;;6.71;100.00;98610.97;1709397;84;21014;-80
2022/09/29 04:58:07;;;;;;;8.55;5.95;;;;;;;6.77;100.00;98609.72;1709756;84;20899;-79
2022/09/29 05:00:34;;;;;;;8.73;6.67;;;;;;;6.85;100.00;98613.61;1710250;83;21144;-85
2022/09/29 05:03:02;;;;;;;10.60;6.45;;;;;;;6.91;100.00;98617.25;1709669;84;20943;-76
2022/09/29 05:05:28;;;;;;;7.92;6.25;;;;;;;6.99;100.00;98610.20;1708550;83;20943;-81
2022/09/29 05:07:55;;;;;;;7.08;5.78;;;;;;;7.07;100.00;98605.33;1709421;83;21006;-76
2022/09/29 05:10:21;;;;;;;10.23;8.15;;;;;;;7.14;100.00;98604.31;1709993;84;20899;-76
2022/09/29 05:12:49;;;;;;;9.93;6.95;;;;;;;7.21;100.00;98606.03;1710037;84;21793;-76
2022/09/29 05:15:17;;;;;;;14.47;6.85;;;;;;;7.27;100.00;98600.67;1710133;84;20907;-83
2022/09/29 05:17:44;;;;;;;10.20;6.53;;;;;;;7.34;100.00;98598.04;1710005;84;20987;-86
2022/09/29 05:20:10;;;;;;;12.93;7.78;;;;;;;7.37;100.00;98602.30;1709818;84;21530;-76
2022/09/29 05:22:38;;;;;;;12.63;7.67;;;;;;;7.43;100.00;98604.33;1710008;84;21011;-77
2022/09/29 05:25:07;;;;;;;12.28;7.45;;;;;;;7.47;100.00;98611.57;1709835;84;21170;-74
2022/09/29 05:27:36;;;;;;;9.43;7.90;;;;;;;7.49;100.00;98609.88;1709986;84;20896;-74
2022/09/29 05:30:04;;;;;;;12.90;9.18;;;;;;;7.54;100.00;98613.24;1710170;84;20990;-73
2022/09/29 05:32:31;;;;;;;19.82;12.75;;;;;;;7.59;100.00;98617.75;1709925;84;20991;-74
2022/09/29 05:34:59;;;;;;;17.32;13.70;;;;;;;7.62;100.00;98621.21;1710005;84;21043;-75
2022/09/29 05:37:28;;;;;;;17.65;11.40;;;;;;;7.68;100.00;98617.77;1709552;84;21171;-80
2022/09/29 05:39:57;;;;;;;16.65;11.35;;;;;;;7.71;100.00;98619.30;1709218;84;21003;-83
2022/09/29 05:42:24;;;;;;;18.82;9.65;;;;;;;7.74;100.00;98621.95;1709473;84;21510;-87
2022/09/29 05:44:51;;;;;;;13.38;9.05;;;;;;;7.73;100.00;98623.88;1709421;84;20917;-84
2022/09/29 05:47:20;;;;;;;12.58;8.13;;;;;;;7.74;100.00;98628.22;1704178;84;21000;-76
2022/09/29 05:49:51;;;;;;;10.18;6.60;;;;;;;7.77;100.00;98629.52;1709605;84;21840;-74
2022/09/29 05:52:19;;;;;;;13.93;7.12;;;;;;;7.80;100.00;98631.61;1674552;84;20947;-73
2022/09/29 05:54:54;;;;;;;15.48;7.08;;;;;;;7.81;100.00;98632.66;1704197;84;20951;-74
2022/09/29 05:57:20;;;;;;;13.60;7.78;;;;;;;7.85;100.00;98634.99;1708899;83;21061;-73
2022/09/29 05:59:49;;;;;;;10.15;7.30;;;;;;;7.91;100.00;98641.11;1702040;84;21428;-73
2022/09/29 06:02:17;;;;;;;10.90;7.67;;;;;;;7.95;100.00;98634.69;1694613;84;21264;-80
2022/09/29 06:04:44;;;;;;;10.25;7.28;;;;;;;8.01;100.00;98633.16;1709969;84;20943;-76
2022/09/29 06:07:11;;;;;;;10.93;7.33;;;;;;;8.06;100.00;98637.10;1709176;84;20915;-79
2022/09/29 06:09:37;;;;;;;9.98;7.08;;;;;;;8.13;100.00;98638.20;1703242;84;21019;-84
2022/09/29 06:12:08;;;;;;;10.25;6.90;;;;;;;8.20;100.00;98636.36;1704211;83;20994;-80
2022/09/29 06:14:36;;;;;;;11.70;7.90;;;;;;;8.24;100.00;98631.29;1704238;83;20958;-82
2022/09/29 06:17:03;;;;;;;12.60;7.67;;;;;;;8.30;100.00;98630.56;1703928;84;20907;-86
2022/09/29 06:19:32;;;;;;;11.38;7.17;;;;;;;8.37;100.00;98640.48;1704085;84;20982;-83
2022/09/29 06:22:01;;;;;;;9.78;7.83;;;;;;;8.47;100.00;98636.05;1689960;84;20916;-82
2022/09/29 06:24:32;;;;;;;10.70;6.55;;;;;;;8.58;100.00;98631.85;1677526;85;21545;-87
2022/09/29 06:27:01;;;;;;;10.85;7.25;;;;;;;8.70;100.00;98631.72;1703649;84;21151;-80
2022/09/29 06:29:30;;;;;;;9.73;6.67;;;;;;;8.76;100.00;98627.12;1703016;84;20946;-82
2022/09/29 06:31:57;;;;;;;9.23;6.83;;;;;;;8.86;100.00;98634.18;1703772;84;20907;-80
2022/09/29 06:34:25;;;;;;;11.97;6.80;;;;;;;8.93;100.00;98629.81;1703947;83;21550;-91
2022/09/29 06:39:40;;;;;;;9.68;8.28;;;;;;;9.18;100.00;98636.33;1702764;84;21156;-81
2022/09/29 06:42:07;;;;;;;12.00;8.53;;;;;;;9.32;100.00;98634.71;1703394;84;21493;-90
2022/09/29 06:44:37;;;;;;;14.75;11.10;;;;;;;9.43;100.00;98635.95;1705151;84;21007;-77
2022/09/29 06:47:08;;;;;;;21.15;16.10;;;;;;;9.60;100.00;98637.80;1706460;84;20908;-74
2022/09/29 06:49:39;;;;;;;24.65;21.10;;;;;;;9.79;100.00;98637.36;1706568;82;20940;-84
2022/09/29 06:52:08;;;;;;;20.45;14.98;;;;;;;9.97;100.00;98633.91;1680077;82;20977;-94
2022/09/29 06:54:37;;;;;;;14.18;9.98;;;;;;;10.14;100.00;98635.95;1680026;84;21488;-87
2022/09/29 06:57:10;;;;;;;9.80;7.78;;;;;;;10.35;100.00;98637.92;1706112;84;21004;-74
2022/09/29 06:59:38;;;;;;;9.10;6.75;;;;;;;10.59;100.00;98638.80;1706348;83;20909;-73
2022/09/29 07:02:12;;;;;;;12.13;6.28;;;;;;;10.83;100.00;98634.53;1705761;82;20873;-80
2022/09/29 07:04:41;;;;;;;7.08;5.53;;;;;;;11.00;100.00;98632.94;1706471;84;21174;-80
2022/09/29 07:07:15;;;;;;;8.20;5.95;;;;;;;11.15;100.00;98641.09;1703651;84;21590;-83
2022/09/29 07:09:49;;;;;;;8.40;5.95;;;;;;;11.30;100.00;98641.00;1674925;84;20891;-70
2022/09/29 07:12:20;;;;;;;6.05;4.58;;;;;;;11.46;100.00;98635.86;1704342;84;20947;-69
2022/09/29 07:14:51;;;;;;;7.37;4.60;;;;;;;11.63;100.00;98634.00;1674069;84;20940;-72
2022/09/29 07:17:22;;;;;;;8.03;5.45;;;;;;;11.77;100.00;98638.60;1700342;84;21351;-70
2022/09/29 07:19:55;;;;;;;;;;;;;;;11.91;100.00;98641.80;1703948;84;21075;-76
2022/09/29 07:22:24;;;;;;;7.47;4.90;;;;;;;12.17;100.00;98631.74;1705080;83;20114;-77
2022/09/29 07:24:56;;;;;;;6.03;4.78;;;;;;;12.53;100.00;98634.38;1675514;84;20963;-75
2022/09/29 07:27:25;;;;;;;10.43;6.90;;;;;;;12.85;100.00;98636.61;1701074;84;21083;-74
2022/09/29 07:29:54;;;;;;;8.63;7.05;;;;;;;12.96;100.00;98634.72;1704103;84;21796;-75
2022/09/29 07:32:25;;;;;;;6.87;5.28;;;;;;;13.01;100.00;98635.26;1704905;84;20953;-76
2022/09/29 07:34:54;;;;;;;9.95;5.78;;;;;;;13.10;100.00;98628.20;1705448;84;20939;-75
2022/09/29 07:37:28;;;;;;;6.87;5.47;;;;;;;13.20;100.00;98638.16;1704955;84;21026;-75
2022/09/29 07:39:58;;;;;;;15.63;9.38;;;;;;;13.39;100.00;98627.77;1675271;84;21021;-76
2022/09/29 07:42:31;;;;;;;15.83;12.80;;;;;;;13.61;100.00;98626.91;1704477;84;21295;-75
2022/09/29 07:45:01;;;;;;;18.27;14.95;;;;;;;13.81;100.00;98629.37;1704717;84;20955;-75
2022/09/29 07:47:30;;;;;;;9.20;6.47;;;;;;;14.00;100.00;98621.69;1704918;84;21470;-76
2022/09/29 07:50:01;;;;;;;11.12;8.05;;;;;;;14.10;100.00;98624.47;1673832;84;21446;-72
2022/09/29 07:52:29;;;;;;;14.03;11.73;;;;;;;14.11;100.00;98626.06;1705103;84;21054;-70
2022/09/29 07:55:01;;;;;;;20.80;17.80;;;;;;;14.09;98.24;98631.14;1704970;84;21304;-71
2022/09/29 07:57:33;;;;;;;19.45;12.68;;;;;;;14.10;99.57;98625.84;1704761;84;20943;-77
2022/09/29 08:00:02;;;;;;;12.68;11.22;;;;;;;14.21;99.36;98633.20;1701866;84;20938;-76
2022/09/29 08:02:35;;;;;;;21.75;16.75;;;;;;;14.39;98.13;98623.91;1673672;84;21010;-81
2022/09/29 08:05:04;;;;;;;14.28;12.47;;;;;;;14.49;93.35;98631.62;1702061;84;21580;-75
2022/09/29 08:07:37;;;;;;;14.85;12.88;;;;;;;14.58;92.95;98627.84;1675934;85;21120;-81
2022/09/29 08:10:08;;;;;;;16.87;13.35;;;;;;;14.74;93.34;98620.27;1684897;85;21044;-74
2022/09/29 08:12:41;;;;;;;16.35;12.23;;;;;;;15.06;94.91;98618.88;1713685;83;21419;-71
2022/09/29 08:15:13;;;;;;;13.78;12.28;;;;;;;15.52;90.44;98623.02;1712819;83;21014;-71
2022/09/29 08:17:45;;;;;;;10.48;7.10;;;;;;;15.97;88.91;98624.89;1687093;83;21555;-69
2022/09/29 08:20:14;;;;;;;6.08;4.35;;;;;;;16.36;86.46;98625.41;1682749;84;21509;-76
2022/09/29 08:22:44;;;;;;;9.48;4.17;;;;;;;16.65;84.44;98631.33;1706937;84;21565;-78
2022/09/29 08:25:17;;;;;;;9.05;3.35;;;;;;;16.93;82.81;98626.08;1706582;84;20915;-76
2022/09/29 08:27:51;;;;;;;5.62;3.40;;;;;;;17.27;83.64;98624.62;1712278;83;20995;-75
2022/09/29 08:30:21;;;;;;;4.42;3.10;;;;;;;17.63;77.51;98626.50;1710307;83;21034;-78
2022/09/29 08:32:52;;;;;;;4.15;2.98;;;;;;;17.79;75.61;98624.27;1713646;83;21171;-77
2022/09/29 08:35:21;;;;;;;3.45;2.30;;;;;;;17.89;75.73;98625.53;1712929;83;21495;-76
2022/09/29 08:37:57;;;;;;;2.17;1.67;;;;;;;18.00;72.02;98621.41;1683132;85;20943;-81
2022/09/29 08:40:30;;;;;;;1.85;1.60;;;;;;;18.02;70.58;98632.92;1687528;83;20930;-77
2022/09/29 08:43:14;;;;;;;4.20;3.12;;;;;;;18.01;67.74;98631.33;1713330;83;20935;-76
2022/09/29 08:45:59;;;;;;;3.33;2.55;;;;;;;17.96;68.45;98625.55;1686966;83;20915;-79
2022/09/29 08:48:32;;;;;;;4.25;2.22;;;;;;;17.85;66.57;98629.47;1706657;84;20927;-83
2022/09/29 08:51:12;;;;;;;4.30;2.40;;;;;;;17.50;66.98;98632.14;1706906;84;20963;-87
2022/09/29 08:53:48;;;;;;;3.87;1.90;;;;;;;17.18;68.66;98632.47;1706302;84;20955;-85
2022/09/29 08:56:21;;;;;;;4.37;2.02;;;;;;;16.87;70.15;98624.82;1707324;84;20943;-79
2022/09/29 08:58:54;;;;;;;6.53;3.02;;;;;;;16.63;72.60;98624.75;1706885;84;21823;-82
2022/09/29 09:01:32;;;;;;;5.55;2.95;;;;;;;16.44;73.34;98616.01;1706713;84;21458;-85
2022/09/29 09:04:38;;;;;;;2.80;2.35;;;;;;;16.29;72.40;98610.66;1706713;84;20931;-81
2022/09/29 09:07:25;;;;;;;3.95;2.05;;;;;;;16.14;72.71;98610.50;1706994;84;20939;-75
2022/09/29 09:10:35;;;;;;;2.77;2.00;;;;;;;16.04;74.73;98608.97;1620387;85;20897;-80
2022/09/29 09:13:35;;;;;;;3.85;1.65;;;;;;;16.09;75.64;98620.52;1581535;89;21257;-83
2022/09/29 09:16:45;;;;;;;2.55;1.42;;;;;;;16.29;73.56;98621.16;1636944;85;20963;-85
2022/09/29 09:19:57;;;;;;;8.00;4.45;;;;;;;16.60;73.14;98610.85;1681794;85;20999;-80
2022/09/29 09:22:59;;;;;;;8.58;4.78;;;;;;;16.99;71.20;98607.13;1654242;85;21511;-81
2022/09/29 09:25:37;;;;;;;5.85;3.00;;;;;;;17.17;69.76;98620.58;1681773;85;20876;-81
2022/09/29 09:28:26;;;;;;;6.03;3.05;;;;;;;17.15;69.24;98619.57;1681544;85;22163;-75
2022/09/29 09:31:14;;;;;;;6.08;2.20;;;;;;;17.22;68.64;98619.43;1681355;85;20958;-72
2022/09/29 09:34:05;;;;;;;2.37;1.50;;;;;;;17.34;70.27;98621.89;1631563;85;21023;-73
2022/09/29 09:36:54;;;;;;;2.60;1.25;;;;;;;17.57;66.67;98624.47;1676796;84;21126;-76
2022/09/29 09:39:45;;;;;;;8.48;1.90;;;;;;;17.72;67.55;98615.09;1679033;85;20999;-75
2022/09/29 09:42:18;;;;;;;2.60;1.55;;;;;;;17.89;65.01;98622.76;1621803;86;21198;-74
2022/09/29 09:44:56;;;;;;;2.80;1.60;;;;;;;17.85;62.49;98614.20;1672799;85;21015;-75
2022/09/29 09:47:43;;;;;;;3.72;1.47;;;;;;;17.68;62.95;98613.69;1679534;85;21514;-78
2022/09/29 09:50:20;;;;;;;4.62;1.32;;;;;;;17.62;66.10;98606.87;1681045;85;20927;-80
2022/09/29 09:52:52;;;;;;;6.70;1.87;;;;;;;17.77;64.77;98621.09;1681610;85;21549;-86
2022/09/29 09:55:33;;;;;;;1.77;1.40;;;;;;;17.94;64.15;98625.14;1653732;85;21769;-74
2022/09/29 09:58:51;;;;;;;2.20;1.20;;;;;;;18.18;62.97;98619.53;1713240;83;20903;-74
2022/09/29 10:01:21;;;;;;;1.05;0.95;;;;;;;18.34;61.83;98620.02;1686840;83;21105;-72
2022/09/29 10:03:53;;;;;;;2.72;1.25;;;;;;;18.41;59.81;98620.05;1713226;83;20971;-73
2022/09/29 10:06:22;;;;;;;1.65;1.07;;;;;;;18.29;60.75;98624.55;1706879;83;20997;-72
2022/09/29 10:08:56;;;;;;;1.42;1.25;;;;;;;18.19;61.71;98621.72;1711748;83;21116;-73
2022/09/29 10:11:35;;;;;;;1.87;1.17;;;;;;;18.16;60.43;98624.68;1675197;85;21542;-73
2022/09/29 10:14:09;;;;;;;3.47;1.60;;;;;;;18.12;62.20;98626.05;1675192;85;21050;-73
2022/09/29 10:16:51;;;;;;;6.53;1.35;;;;;;;18.19;62.19;98629.46;1674961;85;20948;-87
2022/09/29 10:19:26;;;;;;;1.47;1.32;;;;;;;18.36;60.48;98629.35;1703842;84;20955;-77
2022/09/29 10:22:02;;;;;;;3.80;1.57;;;;;;;18.53;62.28;98629.20;1672068;84;21279;-81
2022/09/29 10:24:33;;;;;;;4.45;1.62;;;;;;;18.63;60.82;98630.67;1703162;84;21066;-82
2022/09/29 10:27:05;;;;;;;4.15;2.40;;;;;;;18.76;62.10;98625.55;1705125;84;21435;-76
2022/09/29 10:29:41;;;;;;;1.98;1.30;;;;;;;18.84;59.60;98614.66;1705054;84;20951;-87
2022/09/29 10:32:14;;;;;;;4.55;1.82;;;;;;;18.75;61.48;98621.97;1705096;84;20903;-81
2022/09/29 10:34:48;;;;;;;3.15;1.45;;;;;;;18.63;61.92;98631.26;1703624;84;21064;-77
2022/09/29 10:37:34;;;;;;;2.08;1.55;;;;;;;18.43;62.52;98623.23;1712488;82;20941;-77
2022/09/29 10:40:13;;;;;;;1.60;1.10;;;;;;;18.36;62.79;98619.03;1692259;84;20994;-78
2022/09/29 10:42:45;;;;;;;1.35;1.22;;;;;;;18.48;61.48;98624.22;1701543;84;21463;-87
2022/09/29 10:45:22;;;;;;;3.90;1.30;;;;;;;18.80;61.95;98618.02;1705214;84;20990;-78
2022/09/29 10:48:13;;;;;;;2.35;1.30;;;;;;;19.05;60.29;98618.88;1705050;84;21852;-80
2022/09/29 10:50:58;;;;;;;5.75;1.45;;;;;;;19.30;59.43;98611.93;1705077;84;20871;-82
2022/09/29 10:53:39;;;;;;;2.95;1.40;;;;;;;19.74;58.49;98612.92;1701592;84;20953;-80
2022/09/29 10:56:24;;;;;;;1.62;1.00;;;;;;;20.10;55.74;98610.88;1702356;84;21442;-79
2022/09/29 10:58:57;;;;;;;1.90;1.27;;;;;;;20.31;54.94;98607.22;1673927;84;21050;-74
2022/09/29 11:01:28;;;;;;;2.90;1.75;;;;;;;20.51;55.93;98611.75;1705095;84;21073;-73
2022/09/29 11:04:03;;;;;;;;;;;;;;;20.51;55.77;98602.00;1707356;84;21031;-76
2022/09/29 11:06:37;;;;;;;4.15;1.70;;;;;;;20.41;54.85;98609.80;1675195;84;20158;-81
2022/09/29 11:09:18;;;;;;;6.72;1.90;;;;;;;20.46;56.99;98609.98;1704394;84;21530;-89
2022/09/29 11:11:55;;;;;;;4.33;1.40;;;;;;;20.84;55.04;98602.02;1704725;84;21002;-75
2022/09/29 11:14:40;;;;;;;3.60;1.80;;;;;;;21.28;52.08;98601.97;1704410;84;22137;-81
2022/09/29 11:17:41;;;;;;;8.88;1.50;;;;;;;21.36;51.75;98595.12;1704995;84;20892;-73
2022/09/29 11:20:17;;;;;;;3.52;1.10;;;;;;;21.22;52.53;98593.23;1705003;84;20914;-76
2022/09/29 11:23:08;;;;;;;7.70;1.72;;;;;;;20.97;53.13;98603.73;1704312;84;21080;-74
2022/09/29 11:26:19;;;;;;;5.30;1.98;;;;;;;21.01;52.26;98600.32;1703974;84;21507;-74
2022/09/29 11:28:58;;;;;;;3.72;1.00;;;;;;;21.09;53.71;98608.84;1704853;84;21538;-80
2022/09/29 11:32:10;;;;;;;2.75;1.00;;;;;;;20.96;50.34;98600.15;1673823;84;20990;-79
2022/09/29 11:34:51;;;;;;;2.17;1.12;;;;;;;20.59;51.91;98606.95;1702200;84;20903;-79
2022/09/29 11:38:05;;;;;;;4.40;1.20;;;;;;;20.28;54.19;98605.83;1676011;84;20911;-84
2022/09/29 11:41:08;;;;;;;9.65;1.45;;;;;;;20.16;54.21;98604.30;1675134;84;21063;-81
2022/09/29 11:43:56;;;;;;;4.70;1.45;;;;;;;19.92;56.46;98614.30;1704857;84;21153;-81
2022/09/29 11:46:56;;;;;;;3.37;1.37;;;;;;;19.72;56.97;98609.75;1669168;84;21498;-82
2022/09/29 11:49:42;;;;;;;3.70;1.32;;;;;;;19.60;57.32;98610.19;1705043;84;20999;-77
2022/09/29 11:52:30;;;;;;;1.87;1.00;;;;;;;19.48;57.46;98609.16;1678918;84;20967;-79
2022/09/29 11:55:23;;;;;;;2.47;1.07;;;;;;;19.36;56.96;98605.38;1705097;84;20871;-84
2022/09/29 11:58:19;;;;;;;1.47;0.88;;;;;;;19.27;57.16;98606.36;1705484;84;21186;-74
2022/09/29 12:01:08;;;;;;;2.80;1.35;;;;;;;19.23;58.21;98604.17;1607447;89;20924;-77
2022/09/29 12:03:53;;;;;;;2.77;1.20;;;;;;;19.20;58.27;98602.18;1669816;84;21565;-78
2022/09/29 12:06:59;;;;;;;2.52;1.32;;;;;;;19.15;60.00;98597.80;1704036;84;21359;-83